Time;durP1;ratioP1;P1;durP2;ratioP2;P2;SDS_P1;SDS_P2;PMS_P1;PMS_P2;Temp;Humidity;BMP_temperature;BMP_pressure;BME280_temperature;BME280_humidity;BME280_pressure;Samples;Min_cycle;Max_cycle;Signal;HPM_P1;HPM_P2
2022/05/10 00:02:04;;;;;;;12.55;8.43;;;14.50;99.90;;;;;;7398284;19;20011;-66
2022/05/10 00:04:36;;;;;;;19.00;9.40;;;14.40;99.90;;;;;;7399352;19;20370;-66
2022/05/10 00:07:05;;;;;;;19.23;9.00;;;14.40;99.90;;;;;;7400004;19;20011;-66
2022/05/10 00:09:35;;;;;;;15.93;8.82;;;14.50;99.90;;;;;;7398256;19;20042;-66
2022/05/10 00:12:04;;;;;;;17.92;9.02;;;14.30;99.90;;;;;;7398478;19;20370;-66
2022/05/10 00:14:37;;;;;;;19.50;8.70;;;14.30;99.90;;;;;;7398059;19;20014;-65
2022/05/10 00:17:08;;;;;;;16.73;9.60;;;14.40;99.90;;;;;;7397277;19;20021;-66
2022/05/10 00:19:40;;;;;;;15.43;8.60;;;14.20;99.90;;;;;;7399327;19;20015;-66
2022/05/10 00:22:09;;;;;;;17.27;8.77;;;;;;;;;;7397025;19;20025;-66
2022/05/10 00:24:38;;;;;;;15.93;8.82;;;14.30;99.30;;;;;;7397243;19;20018;-67
2022/05/10 00:27:07;;;;;;;15.98;7.60;;;14.20;99.30;;;;;;7398523;19;20047;-66
2022/05/10 00:29:36;;;;;;;15.40;8.43;;;14.20;99.90;;;;;;7395466;19;20110;-66
2022/05/10 00:32:06;;;;;;;12.98;8.35;;;14.30;99.10;;;;;;7397778;19;20023;-66
2022/05/10 00:34:35;;;;;;;15.93;8.52;;;14.40;99.90;;;;;;7398329;19;20025;-66
2022/05/10 00:37:07;;;;;;;13.20;8.00;;;14.30;99.90;;;;;;7398304;19;20022;-66
2022/05/10 00:39:37;;;;;;;18.98;7.85;;;14.30;99.70;;;;;;7398675;19;20014;-66
2022/05/10 00:42:10;;;;;;;14.82;7.47;;;14.30;98.90;;;;;;7396239;19;20105;-66
2022/05/10 00:44:47;;;;;;;16.08;7.50;;;14.10;99.90;;;;;;7397531;19;20014;-67
2022/05/10 00:47:21;;;;;;;12.88;7.15;;;14.10;99.60;;;;;;7395985;19;19999;-67
2022/05/10 00:49:57;;;;;;;14.85;7.20;;;14.30;99.40;;;;;;7396271;19;20093;-66
2022/05/10 00:52:45;;;;;;;14.82;6.70;;;14.40;99.30;;;;;;7397691;19;20026;-67
2022/05/10 00:55:19;;;;;;;14.75;8.15;;;14.50;99.20;;;;;;7398351;19;20077;-67
2022/05/10 00:57:52;;;;;;;16.92;7.55;;;14.50;99.10;;;;;;7393914;19;20018;-67
2022/05/10 01:00:23;;;;;;;15.13;7.57;;;14.50;99.10;;;;;;7396607;19;20074;-67
2022/05/10 01:03:02;;;;;;;14.25;7.45;;;14.50;99.30;;;;;;7394620;19;20018;-67
2022/05/10 01:05:36;;;;;;;16.35;7.85;;;14.40;99.40;;;;;;7396187;19;20474;-67
2022/05/10 01:08:16;;;;;;;20.35;7.50;;;14.40;97.60;;;;;;7396475;19;20011;-67
2022/05/10 01:10:53;;;;;;;16.05;7.15;;;14.50;99.10;;;;;;7397493;19;20078;-67
2022/05/10 01:13:30;;;;;;;15.80;7.43;;;14.50;98.20;;;;;;7396711;19;20485;-67
2022/05/10 01:16:08;;;;;;;18.67;7.75;;;14.40;97.70;;;;;;7397925;19;20017;-66
2022/05/10 01:18:38;;;;;;;12.77;7.20;;;14.30;98.90;;;;;;7396633;19;20528;-66
2022/05/10 01:21:20;;;;;;;12.95;7.03;;;14.30;97.50;;;;;;7393704;19;20440;-66
2022/05/10 01:24:15;;;;;;;11.45;5.90;;;14.30;98.90;;;;;;7397388;19;20022;-67
2022/05/10 01:26:57;;;;;;;15.10;7.38;;;14.30;99.20;;;;;;7396069;19;20011;-67
2022/05/10 01:29:34;;;;;;;13.63;7.22;;;14.30;98.10;;;;;;7396911;19;20019;-66
2022/05/10 01:34:51;;;;;;;11.27;7.10;;;14.20;99.40;;;;;;7395307;19;20015;-65
2022/05/10 01:37:26;;;;;;;12.73;7.00;;;14.20;99.20;;;;;;7394638;19;20014;-66
2022/05/10 01:40:01;;;;;;;13.50;7.03;;;14.20;99.30;;;;;;7395963;19;20477;-67
2022/05/10 01:42:36;;;;;;;14.40;7.10;;;14.30;99.10;;;;;;7394588;19;20343;-67
2022/05/10 01:45:13;;;;;;;13.88;6.72;;;14.30;98.70;;;;;;7398118;19;20014;-65
2022/05/10 01:47:47;;;;;;;10.30;6.35;;;14.20;97.20;;;;;;7393812;19;20022;-67
2022/05/10 01:50:21;;;;;;;11.63;6.65;;;14.40;98.90;;;;;;7398158;19;20085;-67
2022/05/10 01:53:01;;;;;;;12.88;6.25;;;14.30;98.80;;;;;;7395860;19;20014;-67
2022/05/10 01:55:32;;;;;;;12.85;6.70;;;14.40;98.70;;;;;;7396467;19;20018;-66
2022/05/10 01:58:04;;;;;;;15.57;6.63;;;14.40;98.50;;;;;;7394688;19;20485;-65
2022/05/10 02:00:38;;;;;;;17.50;6.93;;;14.50;97.10;;;;;;7395006;19;20010;-66
2022/05/10 02:03:14;;;;;;;13.60;7.00;;;14.50;98.50;;;;;;7392493;19;20021;-66
2022/05/10 02:05:51;;;;;;;13.02;7.20;;;14.50;98.30;;;;;;7394195;19;20007;-67
2022/05/10 02:08:28;;;;;;;16.85;7.38;;;14.50;96.90;;;;;;7392526;19;20038;-66
2022/05/10 02:11:03;;;;;;;13.07;7.50;;;14.50;98.10;;;;;;7394973;19;20411;-66
2022/05/10 02:13:40;;;;;;;12.35;7.45;;;14.60;96.90;;;;;;7398764;19;20018;-67
2022/05/10 02:16:18;;;;;;;14.77;7.78;;;14.80;96.70;;;;;;7401412;19;20362;-67
2022/05/10 02:18:55;;;;;;;17.50;8.15;;;14.60;97.30;;;;;;7400361;19;20019;-67
2022/05/10 02:21:27;;;;;;;15.93;8.07;;;14.60;97.90;;;;;;7402679;19;20010;-67
2022/05/10 02:24:01;;;;;;;14.20;8.02;;;14.60;97.90;;;;;;7401168;19;20046;-67
2022/05/10 02:26:37;;;;;;;15.13;8.15;;;14.60;97.80;;;;;;7402325;19;20508;-68
2022/05/10 02:29:08;;;;;;;;;;;14.70;96.80;;;;;;7402219;19;20104;-66
2022/05/10 02:34:27;;;;;;;15.57;8.40;;;14.50;96.40;;;;;;7401210;19;20033;-65
2022/05/10 02:36:56;;;;;;;15.50;8.35;;;14.50;98.00;;;;;;7403726;19;20015;-66
2022/05/10 02:39:25;;;;;;;17.25;8.95;;;14.60;98.00;;;;;;7401768;19;20006;-66
2022/05/10 02:41:55;;;;;;;13.13;7.93;;;14.50;98.00;;;;;;7402355;19;20090;-66
2022/05/10 02:44:24;;;;;;;18.77;8.07;;;14.50;98.00;;;;;;7400660;19;20060;-67
2022/05/10 02:46:57;;;;;;;15.98;8.93;;;14.60;98.10;;;;;;7399754;19;20359;-66
2022/05/10 02:49:26;;;;;;;17.60;8.60;;;14.50;96.50;;;;;;7403154;19;20014;-67
2022/05/10 02:51:56;;;;;;;14.65;8.68;;;14.50;98.30;;;;;;7403936;19;20495;-67
2022/05/10 02:54:25;;;;;;;14.68;8.77;;;14.50;98.40;;;;;;7402590;19;20014;-66
2022/05/10 02:56:55;;;;;;;17.33;9.00;;;14.50;98.40;;;;;;7401234;19;20030;-67
2022/05/10 02:59:27;;;;;;;20.38;9.93;;;14.50;98.40;;;;;;7400337;19;20078;-66
2022/05/10 03:02:05;;;;;;;17.48;9.85;;;14.50;98.40;;;;;;7399011;19;20009;-66
2022/05/10 03:04:39;;;;;;;24.48;10.75;;;14.50;96.60;;;;;;7402063;19;20010;-67
2022/05/10 03:07:10;;;;;;;16.50;9.32;;;14.50;98.50;;;;;;7402488;19;20035;-66
2022/05/10 03:09:40;;;;;;;18.48;9.95;;;14.40;98.60;;;;;;7400716;19;20018;-66
2022/05/10 03:12:11;;;;;;;15.15;10.13;;;14.40;98.60;;;;;;7401755;19;20033;-67
2022/05/10 03:14:40;;;;;;;18.00;10.57;;;14.50;97.90;;;;;;7401997;19;20014;-67
2022/05/10 03:17:12;;;;;;;20.33;10.32;;;14.40;98.70;;;;;;7401248;19;20030;-67
2022/05/10 03:19:41;;;;;;;20.92;10.68;;;14.40;98.80;;;;;;7403158;19;20039;-66
2022/05/10 03:22:11;;;;;;;18.40;11.63;;;14.50;98.80;;;;;;7398900;19;20039;-67
2022/05/10 03:24:40;;;;;;;20.33;11.48;;;14.30;97.80;;;;;;7398361;19;20378;-67
2022/05/10 03:27:11;;;;;;;17.52;11.38;;;14.30;99.00;;;;;;7400968;19;20022;-66
2022/05/10 03:29:41;;;;;;;27.13;12.18;;;14.40;97.70;;;;;;7401560;19;20038;-67
2022/05/10 03:32:13;;;;;;;21.75;11.32;;;14.40;99.10;;;;;;7401801;19;20021;-66
2022/05/10 03:34:57;;;;;;;16.60;11.05;;;14.40;99.10;;;;;;7401898;19;20018;-67
2022/05/10 03:37:28;;;;;;;23.50;11.90;;;14.40;99.10;;;;;;7398036;19;20022;-66
2022/05/10 03:39:57;;;;;;;19.25;11.63;;;14.40;99.50;;;;;;7400927;19;20018;-66
2022/05/10 03:42:26;;;;;;;20.67;12.05;;;14.40;99.50;;;;;;7399591;19;20013;-65
2022/05/10 03:44:56;;;;;;;22.15;11.80;;;14.30;99.50;;;;;;7402007;19;20014;-67
2022/05/10 03:47:30;;;;;;;16.73;10.70;;;14.30;99.50;;;;;;7400157;19;20086;-68
2022/05/10 03:49:59;;;;;;;22.55;12.02;;;;;;;;;;7399676;19;20343;-67
2022/05/10 03:52:28;;;;;;;24.00;12.57;;;14.30;99.50;;;;;;7398956;19;20011;-67
2022/05/10 03:54:57;;;;;;;21.30;11.85;;;14.30;99.20;;;;;;7399207;19;20022;-67
2022/05/10 03:57:26;;;;;;;20.50;12.75;;;14.30;99.60;;;;;;7398059;19;20021;-67
2022/05/10 03:59:55;;;;;;;22.92;12.90;;;14.30;99.80;;;;;;7400118;19;20027;-66
2022/05/10 04:02:24;;;;;;;18.45;12.43;;;;;;;;;;7400645;19;20031;-67
2022/05/10 04:04:56;;;;;;;21.38;12.75;;;14.20;99.90;;;;;;7397309;19;20014;-68
2022/05/10 04:07:25;;;;;;;19.15;13.07;;;14.30;99.90;;;;;;7398023;19;20010;-66
2022/05/10 04:09:54;;;;;;;19.10;12.95;;;14.30;99.80;;;;;;7399697;19;20014;-66
2022/05/10 04:12:24;;;;;;;22.08;13.25;;;14.30;99.70;;;;;;7395591;19;20020;-67
2022/05/10 04:14:53;;;;;;;23.17;13.80;;;14.20;99.60;;;;;;7400195;19;20420;-67
2022/05/10 04:17:22;;;;;;;22.73;12.88;;;14.30;99.60;;;;;;7399493;19;20086;-67
2022/05/10 04:19:51;;;;;;;22.33;12.90;;;14.40;99.40;;;;;;7400818;19;20086;-67
2022/05/10 04:22:23;;;;;;;23.63;12.88;;;14.50;99.40;;;;;;7399443;19;20018;-66
2022/05/10 04:24:52;;;;;;;23.90;13.18;;;14.50;99.30;;;;;;7399332;19;20010;-67
2022/05/10 04:27:21;;;;;;;18.27;11.50;;;14.60;99.40;;;;;;7397152;19;20022;-66
2022/05/10 04:29:50;;;;;;;23.40;13.27;;;14.60;98.40;;;;;;7394511;19;20018;-67
2022/05/10 04:32:22;;;;;;;26.63;14.10;;;14.70;99.50;;;;;;7397837;19;20019;-67
2022/05/10 04:34:50;;;;;;;22.05;12.23;;;14.70;99.20;;;;;;7397999;19;20023;-66
2022/05/10 04:37:19;;;;;;;20.25;13.80;;;14.70;99.10;;;;;;7398093;19;20069;-66
2022/05/10 04:42:32;;;;;;;24.60;14.52;;;14.70;99.20;;;;;;7393630;19;20107;-66
2022/05/10 04:45:02;;;;;;;21.63;13.52;;;14.60;99.20;;;;;;7396975;19;20015;-66
2022/05/10 04:47:31;;;;;;;23.33;13.40;;;14.60;97.50;;;;;;7398254;19;20014;-67
2022/05/10 04:50:01;;;;;;;22.40;12.75;;;14.40;99.40;;;;;;7398331;19;20042;-69
2022/05/10 04:52:30;;;;;;;23.05;13.90;;;14.70;99.10;;;;;;7397108;19;20458;-66
2022/05/10 04:55:02;;;;;;;20.52;13.90;;;14.70;99.20;;;;;;7397590;19;20011;-66
2022/05/10 04:57:30;;;;;;;22.63;14.13;;;14.70;99.10;;;;;;7396920;19;20010;-66
2022/05/10 05:00:03;;;;;;;24.30;13.88;;;14.60;99.50;;;;;;7395790;19;20482;-67
2022/05/10 05:02:32;;;;;;;21.67;13.88;;;14.80;99.30;;;;;;7395378;19;20481;-67
2022/05/10 05:05:01;;;;;;;19.00;13.57;;;14.90;99.20;;;;;;7396902;19;20021;-66
2022/05/10 05:07:30;;;;;;;25.15;14.50;;;14.90;99.00;;;;;;7397605;19;20011;-66
2022/05/10 05:10:02;;;;;;;21.38;12.32;;;14.90;98.90;;;;;;7399154;19;20085;-66
2022/05/10 05:12:34;;;;;;;28.80;14.57;;;14.90;99.00;;;;;;7397665;19;20034;-67
2022/05/10 05:15:04;;;;;;;22.92;13.73;;;14.50;99.40;;;;;;7397745;19;20018;-67
2022/05/10 05:17:33;;;;;;;22.83;13.48;;;14.90;99.00;;;;;;7396564;19;20568;-67
2022/05/10 05:20:02;;;;;;;23.88;13.63;;;14.90;99.10;;;;;;7395643;19;20007;-67
2022/05/10 05:22:31;;;;;;;21.73;13.63;;;15.10;99.10;;;;;;7399025;19;20406;-67
2022/05/10 05:25:02;;;;;;;25.48;13.27;;;15.40;99.00;;;;;;7392357;19;20015;-67
2022/05/10 05:27:31;;;;;;;21.13;12.85;;;15.10;98.80;;;;;;7396611;19;20070;-66
2022/05/10 05:30:00;;;;;;;19.48;13.13;;;15.50;99.00;;;;;;7394366;19;20035;-66
2022/05/10 05:32:33;;;;;;;21.80;13.38;;;15.50;98.80;;;;;;7396490;19;20011;-66
2022/05/10 05:35:02;;;;;;;21.90;12.82;;;15.30;98.90;;;;;;7394946;19;20356;-67
2022/05/10 05:37:38;;;;;;;21.33;13.18;;;15.30;98.80;;;;;;7398797;19;20014;-67
2022/05/10 05:40:12;;;;;;;23.90;13.85;;;15.30;99.10;;;;;;7397206;19;20023;-66
2022/05/10 05:42:41;;;;;;;22.25;13.32;;;15.40;99.90;;;;;;7395247;19;20018;-67
2022/05/10 05:45:12;;;;;;;23.08;13.20;;;15.30;98.30;;;;;;7392550;19;20014;-67
2022/05/10 05:47:42;;;;;;;26.30;15.13;;;15.30;98.40;;;;;;7399550;19;20018;-67
2022/05/10 05:50:17;;;;;;;22.40;13.48;;;15.20;99.80;;;;;;7401587;19;20014;-68
2022/05/10 05:52:46;;;;;;;22.88;14.90;;;15.50;99.40;;;;;;7404452;19;20010;-66
2022/05/10 05:55:19;;;;;;;25.63;14.63;;;15.50;99.60;;;;;;7404535;19;20039;-66
2022/05/10 05:57:49;;;;;;;24.38;14.15;;;15.50;99.30;;;;;;7402790;19;20015;-66
2022/05/10 06:00:21;;;;;;;25.05;15.43;;;15.80;99.40;;;;;;7402150;19;20019;-67
2022/05/10 06:02:51;;;;;;;21.85;15.00;;;15.40;98.00;;;;;;7397629;19;20021;-67
2022/05/10 06:05:20;;;;;;;22.88;14.65;;;15.50;98.10;;;;;;7400102;19;20090;-67
2022/05/10 06:07:49;;;;;;;21.50;13.60;;;15.70;99.30;;;;;;7400966;19;20074;-67
2022/05/10 06:10:22;;;;;;;24.95;15.63;;;15.80;98.00;;;;;;7402767;19;20021;-67
2022/05/10 06:12:51;;;;;;;25.17;14.57;;;16.00;98.10;;;;;;7400977;19;20014;-68
2022/05/10 06:15:21;;;;;;;26.50;15.90;;;16.30;97.90;;;;;;7406043;19;20014;-66
2022/05/10 06:17:51;;;;;;;25.48;15.20;;;15.40;99.00;;;;;;7401394;19;20025;-68
2022/05/10 06:20:24;;;;;;;26.30;15.18;;;15.90;97.80;;;;;;7399354;19;20031;-68
2022/05/10 06:22:53;;;;;;;24.55;15.82;;;15.90;97.90;;;;;;7395234;19;20130;-67
2022/05/10 06:25:27;;;;;;;22.90;13.60;;;16.00;98.20;;;;;;7400834;19;20014;-67
2022/05/10 06:27:58;;;;;;;24.95;14.77;;;16.00;97.90;;;;;;7400764;19;20019;-67
2022/05/10 06:30:27;;;;;;;24.08;14.35;;;16.20;99.10;;;;;;7405532;19;20019;-68
2022/05/10 06:32:59;;;;;;;23.00;15.43;;;16.40;99.10;;;;;;7401752;19;20014;-68
2022/05/10 06:35:29;;;;;;;23.27;15.52;;;14.70;97.30;;;;;;7400851;19;20032;-67
2022/05/10 06:40:42;;;;;;;21.65;15.05;;;16.30;97.60;;;;;;7394087;19;20017;-69
2022/05/10 06:43:11;;;;;;;23.33;15.55;;;16.40;97.20;;;;;;7404142;19;20366;-68
2022/05/10 06:45:41;;;;;;;26.85;16.20;;;16.50;97.10;;;;;;7399818;19;19999;-68
2022/05/10 06:48:11;;;;;;;25.25;15.63;;;16.60;97.10;;;;;;7400713;19;20022;-67
2022/05/10 06:50:41;;;;;;;23.85;15.25;;;16.60;98.50;;;;;;7402296;19;20134;-67
2022/05/10 06:53:10;;;;;;;23.35;15.35;;;16.60;97.10;;;;;;7399771;19;20025;-67
2022/05/10 06:55:43;;;;;;;24.13;15.70;;;16.70;97.20;;;;;;7399809;19;20010;-68
2022/05/10 06:58:13;;;;;;;23.80;15.88;;;16.70;97.00;;;;;;7396033;19;20501;-67
2022/05/10 07:00:43;;;;;;;26.80;15.68;;;16.90;97.00;;;;;;7401662;19;20417;-67
2022/05/10 07:03:14;;;;;;;25.90;15.80;;;16.90;97.00;;;;;;7399123;19;20079;-68
2022/05/10 07:05:44;;;;;;;24.83;15.30;;;17.20;96.60;;;;;;7399630;19;20007;-68
2022/05/10 07:08:13;;;;;;;26.83;15.95;;;17.40;96.50;;;;;;7402720;19;20050;-68
2022/05/10 07:10:45;;;;;;;22.60;15.57;;;17.50;96.00;;;;;;7399786;19;20018;-67
2022/05/10 07:13:17;;;;;;;25.48;15.55;;;17.80;95.90;;;;;;7399891;19;20030;-68
2022/05/10 07:15:47;;;;;;;32.42;15.57;;;17.90;95.90;;;;;;7398148;19;20025;-68
2022/05/10 07:18:17;;;;;;;22.25;13.63;;;18.20;95.70;;;;;;7400459;19;20011;-68
2022/05/10 07:20:47;;;;;;;19.02;12.18;;;18.40;94.50;;;;;;7398704;19;20011;-66
2022/05/10 07:23:23;;;;;;;18.10;12.07;;;18.50;93.80;;;;;;7400914;19;20133;-66
2022/05/10 07:25:55;;;;;;;18.13;11.65;;;18.60;93.40;;;;;;7400453;19;20014;-66
2022/05/10 07:28:26;;;;;;;20.33;12.15;;;18.80;93.10;;;;;;7399335;19;20026;-67
2022/05/10 07:30:55;;;;;;;20.05;12.05;;;18.90;92.80;;;;;;7400070;19;20015;-67
2022/05/10 07:33:24;;;;;;;19.45;12.70;;;18.70;92.90;;;;;;7399104;19;20009;-67
2022/05/10 07:38:35;;;;;;;20.20;12.35;;;19.00;93.10;;;;;;7402793;19;20030;-67
2022/05/10 07:41:07;;;;;;;20.27;12.95;;;19.20;92.90;;;;;;7397958;19;20014;-67
2022/05/10 07:43:39;;;;;;;19.50;11.57;;;19.40;93.00;;;;;;7401256;19;20025;-66
2022/05/10 07:46:09;;;;;;;16.98;10.27;;;19.50;92.80;;;;;;7397575;19;20011;-66
2022/05/10 07:48:38;;;;;;;14.63;9.90;;;19.80;91.60;;;;;;7397356;19;20478;-67
2022/05/10 07:51:08;;;;;;;14.77;9.60;;;20.00;91.40;;;;;;7399823;19;20362;-68
2022/05/10 07:53:37;;;;;;;17.77;9.95;;;20.10;90.70;;;;;;7401552;19;20082;-66
2022/05/10 07:56:09;;;;;;;18.23;9.43;;;20.20;90.70;;;;;;7401070;19;20014;-66
2022/05/10 07:58:38;;;;;;;18.73;10.10;;;20.60;90.70;;;;;;7397451;19;20372;-67
2022/05/10 08:01:08;;;;;;;14.48;8.98;;;20.70;90.10;;;;;;7398009;19;20015;-66
2022/05/10 08:03:38;;;;;;;14.65;9.55;;;21.00;90.40;;;;;;7397965;19;20342;-67
2022/05/10 08:06:07;;;;;;;17.13;9.27;;;20.80;89.70;;;;;;7399785;19;20024;-68
2022/05/10 08:08:37;;;;;;;14.25;7.97;;;21.00;90.00;;;;;;7398154;19;19998;-68
2022/05/10 08:11:09;;;;;;;17.73;7.80;;;21.20;89.00;;;;;;7394428;19;19998;-67
2022/05/10 08:13:39;;;;;;;15.57;7.32;;;21.30;88.70;;;;;;7399204;19;20414;-67
2022/05/10 08:16:09;;;;;;;14.30;7.18;;;21.70;87.80;;;;;;7399657;19;20010;-67
2022/05/10 08:18:40;;;;;;;15.88;7.72;;;21.60;86.30;;;;;;7395752;19;20058;-68
2022/05/10 08:21:10;;;;;;;13.93;6.03;;;21.90;87.40;;;;;;7397014;19;20375;-67
2022/05/10 08:23:39;;;;;;;11.50;5.57;;;22.00;85.30;;;;;;7397904;19;20025;-67
2022/05/10 08:26:11;;;;;;;13.73;5.15;;;22.10;84.50;;;;;;7399457;19;20042;-67
2022/05/10 08:28:40;;;;;;;12.15;5.45;;;22.20;80.60;;;;;;7399003;19;20015;-67
2022/05/10 08:31:10;;;;;;;9.75;4.50;;;22.00;81.00;;;;;;7398408;19;20014;-68
2022/05/10 08:33:42;;;;;;;10.30;4.75;;;22.20;80.60;;;;;;7400321;19;20383;-67
2022/05/10 08:36:12;;;;;;;9.32;4.60;;;22.20;80.90;;;;;;7398983;19;20104;-67
2022/05/10 08:38:41;;;;;;;8.45;4.60;;;22.30;80.30;;;;;;7397223;19;20353;-67
2022/05/10 08:41:17;;;;;;;11.25;5.57;;;22.30;78.90;;;;;;7396512;19;20002;-66
2022/05/10 08:43:49;;;;;;;8.95;5.20;;;22.50;78.80;;;;;;7396326;19;20065;-66
2022/05/10 08:46:23;;;;;;;10.60;5.22;;;22.40;78.20;;;;;;7399102;19;20031;-66
2022/05/10 08:48:59;;;;;;;13.93;5.40;;;22.70;78.60;;;;;;7397406;19;20025;-67
2022/05/10 08:51:29;;;;;;;10.00;5.78;;;22.40;78.30;;;;;;7395882;19;20501;-67
2022/05/10 08:54:00;;;;;;;7.90;4.90;;;22.50;78.40;;;;;;7398425;19;20015;-67
2022/05/10 08:56:38;;;;;;;7.97;5.00;;;22.70;77.90;;;;;;7397414;19;20018;-67
2022/05/10 08:59:17;;;;;;;8.75;5.25;;;22.70;78.10;;;;;;7397149;19;20024;-67
2022/05/10 09:01:55;;;;;;;12.25;5.82;;;23.00;76.90;;;;;;7395992;19;20014;-67
2022/05/10 09:04:42;;;;;;;8.60;5.53;;;23.10;76.30;;;;;;7398819;19;20038;-67
2022/05/10 09:07:19;;;;;;;10.35;5.40;;;22.80;74.60;;;;;;7398873;19;20014;-67
2022/05/10 09:10:06;;;;;;;10.30;4.72;;;22.80;75.50;;;;;;7395197;19;20006;-67
2022/05/10 09:12:48;;;;;;;14.40;5.35;;;22.90;76.20;;;;;;7394833;19;20011;-67
2022/05/10 09:15:20;;;;;;;7.78;4.50;;;22.70;75.10;;;;;;7396043;19;20038;-67
2022/05/10 09:17:49;;;;;;;7.95;3.53;;;22.80;75.10;;;;;;7396529;19;20030;-67
2022/05/10 09:20:18;;;;;;;8.35;4.50;;;22.50;74.50;;;;;;7396413;19;20331;-66
2022/05/10 09:23:12;;;;;;;7.60;4.95;;;22.60;74.70;;;;;;7398705;19;20478;-67
2022/05/10 09:25:45;;;;;;;9.15;5.50;;;22.80;74.60;;;;;;7391268;19;20033;-67
2022/05/10 09:28:22;;;;;;;7.75;4.40;;;22.80;75.10;;;;;;7396529;19;20043;-67
2022/05/10 09:36:24;;;;;;;7.95;4.18;;;22.90;74.80;;;;;;7398177;19;20056;-67
2022/05/10 09:38:56;;;;;;;8.05;4.30;;;22.90;74.40;;;;;;7394025;19;20010;-66
2022/05/10 09:41:33;;;;;;;7.90;4.20;;;22.80;74.40;;;;;;7397280;19;20015;-66
2022/05/10 09:44:22;;;;;;;6.28;4.20;;;22.50;72.30;;;;;;7394224;19;20014;-67
2022/05/10 09:46:52;;;;;;;9.57;4.30;;;22.60;73.80;;;;;;7393200;19;20014;-67
2022/05/10 09:49:36;;;;;;;7.63;4.28;;;22.50;74.50;;;;;;7394747;19;20010;-67
2022/05/10 09:52:07;;;;;;;9.27;4.60;;;22.40;75.10;;;;;;7394108;19;20419;-67
2022/05/10 09:54:40;;;;;;;9.60;4.85;;;22.50;75.30;;;;;;7394855;19;20038;-67
2022/05/10 09:57:13;;;;;;;8.73;4.75;;;22.40;75.90;;;;;;7394779;19;20011;-67
2022/05/10 09:59:47;;;;;;;9.35;5.90;;;22.60;75.40;;;;;;7393998;19;20086;-67
2022/05/10 10:02:30;;;;;;;10.13;5.07;;;22.50;76.10;;;;;;7393671;19;20476;-67
2022/05/10 10:04:59;;;;;;;9.90;5.28;;;22.60;76.50;;;;;;7393420;19;20007;-67
2022/05/10 10:07:30;;;;;;;9.20;5.20;;;22.60;75.50;;;;;;7394564;19;20504;-66
2022/05/10 10:10:18;;;;;;;10.65;5.40;;;22.70;76.20;;;;;;7393108;19;20334;-67
2022/05/10 10:12:49;;;;;;;8.48;5.47;;;22.90;76.50;;;;;;7397476;19;20038;-67
2022/05/10 10:15:28;;;;;;;8.25;5.95;;;22.90;76.20;;;;;;7391174;19;20085;-67
2022/05/10 10:17:59;;;;;;;12.07;5.75;;;23.10;75.40;;;;;;7393194;19;20565;-68
2022/05/10 10:20:38;;;;;;;12.23;5.95;;;23.10;75.70;;;;;;7395887;19;20474;-68
2022/05/10 10:23:13;;;;;;;10.27;6.15;;;23.20;75.70;;;;;;7391589;19;20018;-65
2022/05/10 10:25:46;;;;;;;8.75;4.90;;;23.20;75.90;;;;;;7394922;19;20032;-69
2022/05/10 10:28:24;;;;;;;7.97;6.20;;;23.10;75.70;;;;;;7395183;19;20006;-67
2022/05/10 10:31:02;;;;;;;10.02;6.00;;;23.10;76.50;;;;;;7392964;19;20030;-66
2022/05/10 10:33:37;;;;;;;10.55;5.82;;;22.90;76.10;;;;;;7396376;19;20088;-68
2022/05/10 10:36:13;;;;;;;9.57;5.50;;;23.00;76.00;;;;;;7402703;19;20017;-67
2022/05/10 10:38:55;;;;;;;8.50;4.68;;;23.00;76.10;;;;;;7403682;19;20014;-67
2022/05/10 10:41:32;;;;;;;7.93;6.05;;;22.70;76.60;;;;;;7402462;19;20569;-67
2022/05/10 10:44:06;;;;;;;10.80;5.88;;;22.80;76.00;;;;;;7397706;19;20014;-67
2022/05/10 10:46:47;;;;;;;7.95;5.50;;;23.10;76.40;;;;;;7401134;19;20019;-67
2022/05/10 10:49:18;;;;;;;10.85;6.40;;;23.10;76.60;;;;;;7402732;19;20017;-66
2022/05/10 10:51:47;;;;;;;12.07;6.28;;;23.20;76.00;;;;;;7402280;19;20032;-66
2022/05/10 10:54:20;;;;;;;9.45;6.43;;;23.50;75.70;;;;;;7399272;19;20485;-66
2022/05/10 10:57:04;;;;;;;7.13;5.32;;;23.80;75.20;;;;;;7399877;19;20018;-66
2022/05/10 10:59:50;;;;;;;10.13;6.05;;;23.90;74.50;;;;;;7398765;19;20014;-66
2022/05/10 11:02:51;;;;;;;11.77;5.45;;;23.80;74.90;;;;;;7397959;19;20011;-66
2022/05/10 11:05:47;;;;;;;11.20;5.60;;;24.20;74.00;;;;;;7399421;19;20032;-66
2022/05/10 11:08:34;;;;;;;6.15;4.75;;;24.40;73.90;;;;;;7397880;19;20349;-66
2022/05/10 11:11:09;;;;;;;8.70;4.45;;;24.60;72.80;;;;;;7396789;19;20034;-66
2022/05/10 11:13:52;;;;;;;6.82;4.63;;;24.40;71.60;;;;;;7397998;19;20035;-65
2022/05/10 11:16:36;;;;;;;9.75;5.05;;;24.20;71.10;;;;;;7398344;19;20019;-66
2022/05/10 11:19:27;;;;;;;16.98;5.25;;;24.00;70.60;;;;;;7403280;19;20042;-65
2022/05/10 11:22:09;;;;;;;8.88;5.43;;;24.00;70.20;;;;;;7397373;19;20074;-65
2022/05/10 11:24:45;;;;;;;16.05;5.00;;;24.00;70.60;;;;;;7398345;19;20018;-66
2022/05/10 11:27:26;;;;;;;13.20;5.35;;;23.90;70.80;;;;;;7400466;19;20074;-67
2022/05/10 11:30:09;;;;;;;6.43;3.85;;;23.70;71.70;;;;;;7401362;19;20022;-66
2022/05/10 11:33:03;;;;;;;6.55;4.43;;;23.50;70.70;;;;;;7396098;19;20010;-66
2022/05/10 11:35:53;;;;;;;9.73;5.53;;;23.50;71.30;;;;;;7399662;19;20010;-66
2022/05/10 11:38:42;;;;;;;10.00;5.60;;;23.60;73.20;;;;;;7399983;19;20018;-66
2022/05/10 11:41:18;;;;;;;11.25;5.85;;;23.60;73.30;;;;;;7401510;19;20019;-65
2022/05/10 11:44:17;;;;;;;9.65;5.65;;;23.50;73.00;;;;;;7396584;19;20413;-66
2022/05/10 11:47:13;;;;;;;7.68;5.55;;;23.40;73.00;;;;;;7400329;19;20007;-66
2022/05/10 11:49:56;;;;;;;13.70;5.50;;;23.20;71.70;;;;;;7398242;19;20089;-67
2022/05/10 11:52:55;;;;;;;13.13;6.13;;;23.10;73.40;;;;;;7396067;19;20094;-66
2022/05/10 11:55:36;;;;;;;9.32;6.35;;;22.90;75.00;;;;;;7398717;19;20389;-66
2022/05/10 11:58:10;;;;;;;8.82;6.30;;;22.90;75.70;;;;;;7397966;19;20390;-67
2022/05/10 12:00:51;;;;;;;14.07;6.88;;;22.90;76.10;;;;;;7400618;19;20034;-66
2022/05/10 12:03:50;;;;;;;10.32;6.88;;;22.90;76.20;;;;;;7397792;19;20028;-66
2022/05/10 12:06:38;;;;;;;10.23;6.57;;;23.00;75.90;;;;;;7395877;19;20014;-66
2022/05/10 12:09:09;;;;;;;11.77;6.15;;;23.10;76.60;;;;;;7397413;19;20004;-67
2022/05/10 12:11:43;;;;;;;11.15;6.60;;;23.30;76.00;;;;;;7397384;19;20021;-66
2022/05/10 12:22:58;;;;;;;11.95;5.93;;;24.20;73.20;;;;;;7397020;19;20002;-66
2022/05/10 12:25:53;;;;;;;11.68;6.75;;;23.70;74.20;;;;;;7397494;19;20038;-67
2022/05/10 12:28:41;;;;;;;9.02;7.03;;;23.90;73.20;;;;;;7396877;19;20006;-67
2022/05/10 12:31:26;;;;;;;10.93;6.47;;;23.90;74.10;;;;;;7399737;19;20014;-67
2022/05/10 12:34:01;;;;;;;10.10;6.55;;;24.00;74.10;;;;;;7396882;19;20015;-67
2022/05/10 12:36:32;;;;;;;10.07;6.50;;;24.10;73.40;;;;;;7397000;19;20035;-67
2022/05/10 12:39:21;;;;;;;14.35;6.50;;;24.00;72.90;;;;;;7396592;19;20003;-68
2022/05/10 12:41:54;;;;;;;7.55;5.43;;;23.90;71.80;;;;;;7396555;19;20486;-67
2022/05/10 12:44:52;;;;;;;9.52;6.07;;;24.00;73.10;;;;;;7393154;19;21111;-66
2022/05/10 12:47:55;;;;;;;8.25;5.35;;;24.00;73.20;;;;;;7396410;19;20070;-67
2022/05/10 12:50:44;;;;;;;9.45;5.60;;;24.40;70.80;;;;;;7396111;19;20017;-67
2022/05/10 12:53:25;;;;;;;9.63;5.20;;;23.50;70.20;;;;;;7397583;19;20023;-66
2022/05/10 12:56:01;;;;;;;9.68;4.72;;;24.40;71.30;;;;;;7396345;19;20038;-65
2022/05/10 12:58:34;;;;;;;;;;;24.00;70.90;;;;;;7399109;19;20018;-66
2022/05/10 13:01:10;;;;;;;11.63;5.53;;;23.90;71.40;;;;;;7398355;19;19919;-67
2022/05/10 13:03:45;;;;;;;10.63;4.78;;;24.50;71.20;;;;;;7398379;19;20018;-66
2022/05/10 13:06:21;;;;;;;10.07;5.05;;;24.40;70.10;;;;;;7395299;19;20030;-66
2022/05/10 13:09:11;;;;;;;11.45;5.53;;;24.60;70.10;;;;;;7396087;19;20037;-67
2022/05/10 13:11:49;;;;;;;11.48;5.35;;;24.40;69.90;;;;;;7394058;19;20074;-66
2022/05/10 13:14:20;;;;;;;13.50;5.00;;;24.50;70.30;;;;;;7394816;19;20022;-66
2022/05/10 13:16:54;;;;;;;8.10;5.00;;;24.50;70.40;;;;;;7395388;19;20010;-66
2022/05/10 13:19:26;;;;;;;12.85;5.20;;;24.30;70.50;;;;;;7393352;19;20477;-66
2022/05/10 13:21:55;;;;;;;10.30;5.00;;;24.10;70.50;;;;;;7396219;19;20046;-65
2022/05/10 13:24:26;;;;;;;9.95;5.18;;;23.90;70.20;;;;;;7394952;19;20018;-66
2022/05/10 13:26:58;;;;;;;12.48;5.47;;;23.60;70.90;;;;;;7394432;19;20018;-67
2022/05/10 13:29:45;;;;;;;10.23;5.15;;;23.70;70.80;;;;;;7395745;19;20010;-67
2022/05/10 13:32:33;;;;;;;9.75;5.28;;;23.60;71.80;;;;;;7395756;19;20035;-67
2022/05/10 13:35:10;;;;;;;9.43;4.68;;;23.50;72.10;;;;;;7395292;19;20074;-67
2022/05/10 13:37:42;;;;;;;9.48;4.65;;;23.70;71.60;;;;;;7395216;19;20367;-66
2022/05/10 13:40:29;;;;;;;9.07;4.90;;;23.30;71.30;;;;;;7394641;19;20031;-66